sensor_id;sensor_type;location;lat;lon;timestamp;temperature;humidity
16893;DHT22;8563;52.242;9.098;2024-02-04T00:02:21;9.90;99.90
16893;DHT22;8563;52.242;9.098;2024-02-04T00:04:55;9.90;99.90
16893;DHT22;8563;52.242;9.098;2024-02-04T00:07:28;9.80;99.90
16893;DHT22;8563;52.242;9.098;2024-02-04T00:10:00;9.80;99.90
16893;DHT22;8563;52.242;9.098;2024-02-04T00:12:32;9.70;99.90
16893;DHT22;8563;52.242;9.098;2024-02-04T00:15:07;9.70;99.90
16893;DHT22;8563;52.242;9.098;2024-02-04T00:17:39;9.60;99.90
16893;DHT22;8563;52.242;9.098;2024-02-04T00:20:11;9.70;99.90
16893;DHT22;8563;52.242;9.098;2024-02-04T00:22:44;9.60;99.90
16893;DHT22;8563;52.242;9.098;2024-02-04T00:25:16;9.70;99.90
16893;DHT22;8563;52.242;9.098;2024-02-04T00:27:53;9.70;99.90
16893;DHT22;8563;52.242;9.098;2024-02-04T00:30:26;9.70;99.90
16893;DHT22;8563;52.242;9.098;2024-02-04T00:32:58;9.80;99.90
16893;DHT22;8563;52.242;9.098;2024-02-04T00:35:33;9.80;99.90
16893;DHT22;8563;52.242;9.098;2024-02-04T00:38:06;9.70;99.90
16893;DHT22;8563;52.242;9.098;2024-02-04T00:40:42;9.60;99.90
16893;DHT22;8563;52.242;9.098;2024-02-04T00:43:14;9.60;99.90
16893;DHT22;8563;52.242;9.098;2024-02-04T00:45:48;9.60;99.90
16893;DHT22;8563;52.242;9.098;2024-02-04T00:48:20;9.60;99.90
16893;DHT22;8563;52.242;9.098;2024-02-04T00:50:52;9.60;99.90
16893;DHT22;8563;52.242;9.098;2024-02-04T00:53:24;9.70;99.90
16893;DHT22;8563;52.242;9.098;2024-02-04T00:55:59;9.70;99.90
16893;DHT22;8563;52.242;9.098;2024-02-04T00:58:31;9.70;99.90
16893;DHT22;8563;52.242;9.098;2024-02-04T01:01:05;9.80;99.90
16893;DHT22;8563;52.242;9.098;2024-02-04T01:03:37;9.80;99.90
16893;DHT22;8563;52.242;9.098;2024-02-04T01:06:10;9.80;99.90
16893;DHT22;8563;52.242;9.098;2024-02-04T01:08:42;9.60;99.90
16893;DHT22;8563;52.242;9.098;2024-02-04T01:11:14;9.60;99.90
16893;DHT22;8563;52.242;9.098;2024-02-04T01:13:46;9.60;99.90
16893;DHT22;8563;52.242;9.098;2024-02-04T01:16:20;9.70;99.90
16893;DHT22;8563;52.242;9.098;2024-02-04T01:18:53;9.70;99.90
16893;DHT22;8563;52.242;9.098;2024-02-04T01:21:25;9.70;99.90
16893;DHT22;8563;52.242;9.098;2024-02-04T01:23:58;9.70;99.90
16893;DHT22;8563;52.242;9.098;2024-02-04T01:26:30;9.80;99.90
16893;DHT22;8563;52.242;9.098;2024-02-04T01:29:02;9.80;99.90
16893;DHT22;8563;52.242;9.098;2024-02-04T01:31:36;9.80;99.90
16893;DHT22;8563;52.242;9.098;2024-02-04T01:34:09;9.80;99.90
16893;DHT22;8563;52.242;9.098;2024-02-04T01:36:41;9.80;99.90
16893;DHT22;8563;52.242;9.098;2024-02-04T01:39:13;9.80;99.90
16893;DHT22;8563;52.242;9.098;2024-02-04T01:41:46;9.70;99.90
16893;DHT22;8563;52.242;9.098;2024-02-04T01:44:18;9.80;99.90
16893;DHT22;8563;52.242;9.098;2024-02-04T01:46:53;9.80;99.90
16893;DHT22;8563;52.242;9.098;2024-02-04T01:49:26;9.80;99.90
16893;DHT22;8563;52.242;9.098;2024-02-04T01:51:59;9.80;99.90
16893;DHT22;8563;52.242;9.098;2024-02-04T01:54:31;9.80;99.90
16893;DHT22;8563;52.242;9.098;2024-02-04T01:57:04;9.80;99.90
16893;DHT22;8563;52.242;9.098;2024-02-04T01:59:39;9.70;99.90
16893;DHT22;8563;52.242;9.098;2024-02-04T02:02:13;9.70;99.90
16893;DHT22;8563;52.242;9.098;2024-02-04T02:04:46;9.80;99.90
16893;DHT22;8563;52.242;9.098;2024-02-04T02:07:19;9.80;99.90
16893;DHT22;8563;52.242;9.098;2024-02-04T02:09:52;9.70;99.90
16893;DHT22;8563;52.242;9.098;2024-02-04T02:12:25;9.80;99.90
16893;DHT22;8563;52.242;9.098;2024-02-04T02:15:09;9.70;99.90
16893;DHT22;8563;52.242;9.098;2024-02-04T02:17:50;9.80;99.90
16893;DHT22;8563;52.242;9.098;2024-02-04T02:20:27;9.70;99.90
16893;DHT22;8563;52.242;9.098;2024-02-04T02:23:07;9.70;99.90
16893;DHT22;8563;52.242;9.098;2024-02-04T02:25:41;9.80;99.90
16893;DHT22;8563;52.242;9.098;2024-02-04T02:28:14;9.80;99.90
16893;DHT22;8563;52.242;9.098;2024-02-04T02:30:46;9.80;99.90
16893;DHT22;8563;52.242;9.098;2024-02-04T02:33:18;9.80;99.90
16893;DHT22;8563;52.242;9.098;2024-02-04T02:35:55;9.80;99.90
16893;DHT22;8563;52.242;9.098;2024-02-04T02:38:33;9.70;99.90
16893;DHT22;8563;52.242;9.098;2024-02-04T02:41:13;9.80;99.90
16893;DHT22;8563;52.242;9.098;2024-02-04T02:43:48;9.70;99.90
16893;DHT22;8563;52.242;9.098;2024-02-04T02:46:23;9.70;99.90
16893;DHT22;8563;52.242;9.098;2024-02-04T02:48:55;9.70;99.90
16893;DHT22;8563;52.242;9.098;2024-02-04T02:51:28;9.70;99.90
16893;DHT22;8563;52.242;9.098;2024-02-04T02:54:00;9.70;99.90
16893;DHT22;8563;52.242;9.098;2024-02-04T02:56:34;9.80;99.90
16893;DHT22;8563;52.242;9.098;2024-02-04T02:59:06;9.70;99.90
16893;DHT22;8563;52.242;9.098;2024-02-04T03:01:39;9.70;99.90
16893;DHT22;8563;52.242;9.098;2024-02-04T03:04:12;9.70;99.90
16893;DHT22;8563;52.242;9.098;2024-02-04T03:06:44;9.70;99.90
16893;DHT22;8563;52.242;9.098;2024-02-04T03:09:16;9.80;99.90
16893;DHT22;8563;52.242;9.098;2024-02-04T03:11:50;9.80;99.90
16893;DHT22;8563;52.242;9.098;2024-02-04T03:14:22;9.80;99.90
16893;DHT22;8563;52.242;9.098;2024-02-04T03:16:55;9.80;99.90
16893;DHT22;8563;52.242;9.098;2024-02-04T03:19:27;9.90;99.90
16893;DHT22;8563;52.242;9.098;2024-02-04T03:21:59;9.90;99.90
16893;DHT22;8563;52.242;9.098;2024-02-04T03:24:32;9.90;99.90
16893;DHT22;8563;52.242;9.098;2024-02-04T03:27:06;9.90;99.90
16893;DHT22;8563;52.242;9.098;2024-02-04T03:29:38;9.90;99.90
16893;DHT22;8563;52.242;9.098;2024-02-04T03:32:11;9.90;99.90
16893;DHT22;8563;52.242;9.098;2024-02-04T03:34:43;9.90;99.90
16893;DHT22;8563;52.242;9.098;2024-02-04T03:37:16;9.90;99.90
16893;DHT22;8563;52.242;9.098;2024-02-04T03:39:49;9.90;99.90
16893;DHT22;8563;52.242;9.098;2024-02-04T03:42:22;9.90;99.90
16893;DHT22;8563;52.242;9.098;2024-02-04T03:44:56;9.90;99.90
16893;DHT22;8563;52.242;9.098;2024-02-04T03:47:28;9.90;99.90
16893;DHT22;8563;52.242;9.098;2024-02-04T03:50:00;9.90;99.90
16893;DHT22;8563;52.242;9.098;2024-02-04T03:52:32;9.90;99.90
16893;DHT22;8563;52.242;9.098;2024-02-04T03:55:05;9.90;99.90
16893;DHT22;8563;52.242;9.098;2024-02-04T03:57:39;9.90;99.90
16893;DHT22;8563;52.242;9.098;2024-02-04T04:00:13;9.90;99.90
16893;DHT22;8563;52.242;9.098;2024-02-04T04:02:45;9.90;99.90
16893;DHT22;8563;52.242;9.098;2024-02-04T04:05:18;9.90;99.90
16893;DHT22;8563;52.242;9.098;2024-02-04T04:07:50;9.80;99.90
16893;DHT22;8563;52.242;9.098;2024-02-04T04:10:22;9.80;99.90
16893;DHT22;8563;52.242;9.098;2024-02-04T04:12:56;9.80;99.90
16893;DHT22;8563;52.242;9.098;2024-02-04T04:15:28;9.70;99.90
16893;DHT22;8563;52.242;9.098;2024-02-04T04:18:00;9.60;99.90
16893;DHT22;8563;52.242;9.098;2024-02-04T04:20:33;9.50;99.90
16893;DHT22;8563;52.242;9.098;2024-02-04T04:23:05;9.40;99.90
16893;DHT22;8563;52.242;9.098;2024-02-04T04:25:37;9.30;99.90
16893;DHT22;8563;52.242;9.098;2024-02-04T04:28:11;9.30;99.90
16893;DHT22;8563;52.242;9.098;2024-02-04T04:30:43;9.30;99.90
16893;DHT22;8563;52.242;9.098;2024-02-04T04:33:15;9.40;99.90
16893;DHT22;8563;52.242;9.098;2024-02-04T04:35:48;9.40;99.90
16893;DHT22;8563;52.242;9.098;2024-02-04T04:38:20;9.50;99.90
16893;DHT22;8563;52.242;9.098;2024-02-04T04:40:52;9.50;99.90
16893;DHT22;8563;52.242;9.098;2024-02-04T04:43:26;9.40;99.90
16893;DHT22;8563;52.242;9.098;2024-02-04T04:45:58;9.40;99.90
16893;DHT22;8563;52.242;9.098;2024-02-04T04:48:33;9.40;99.90
16893;DHT22;8563;52.242;9.098;2024-02-04T04:51:08;9.40;99.90
16893;DHT22;8563;52.242;9.098;2024-02-04T04:53:40;9.50;99.90
16893;DHT22;8563;52.242;9.098;2024-02-04T04:56:12;9.50;99.90
16893;DHT22;8563;52.242;9.098;2024-02-04T04:58:46;9.50;99.90
16893;DHT22;8563;52.242;9.098;2024-02-04T05:01:18;9.60;99.90
16893;DHT22;8563;52.242;9.098;2024-02-04T05:03:50;9.60;99.90
16893;DHT22;8563;52.242;9.098;2024-02-04T05:06:23;9.60;99.90
16893;DHT22;8563;52.242;9.098;2024-02-04T05:08:55;9.60;99.90
16893;DHT22;8563;52.242;9.098;2024-02-04T05:11:27;9.60;99.90
16893;DHT22;8563;52.242;9.098;2024-02-04T05:14:01;9.70;99.90
16893;DHT22;8563;52.242;9.098;2024-02-04T05:16:33;9.70;99.90
16893;DHT22;8563;52.242;9.098;2024-02-04T05:19:06;9.70;99.90
16893;DHT22;8563;52.242;9.098;2024-02-04T05:21:39;9.70;99.90
16893;DHT22;8563;52.242;9.098;2024-02-04T05:24:11;9.80;99.90
16893;DHT22;8563;52.242;9.098;2024-02-04T05:26:43;9.80;99.90
16893;DHT22;8563;52.242;9.098;2024-02-04T05:29:17;9.80;99.90
16893;DHT22;8563;52.242;9.098;2024-02-04T05:31:49;9.80;99.90
16893;DHT22;8563;52.242;9.098;2024-02-04T05:34:21;9.80;99.90
16893;DHT22;8563;52.242;9.098;2024-02-04T05:36:54;9.80;99.90
16893;DHT22;8563;52.242;9.098;2024-02-04T05:39:26;9.90;99.90
16893;DHT22;8563;52.242;9.098;2024-02-04T05:41:58;9.90;99.90
16893;DHT22;8563;52.242;9.098;2024-02-04T05:44:32;9.90;99.90
16893;DHT22;8563;52.242;9.098;2024-02-04T05:47:04;9.90;99.90
16893;DHT22;8563;52.242;9.098;2024-02-04T05:49:36;9.90;99.90
16893;DHT22;8563;52.242;9.098;2024-02-04T05:52:09;9.90;99.90
16893;DHT22;8563;52.242;9.098;2024-02-04T05:54:41;9.90;99.90
16893;DHT22;8563;52.242;9.098;2024-02-04T05:57:13;9.90;99.90
16893;DHT22;8563;52.242;9.098;2024-02-04T05:59:47;9.90;99.90
16893;DHT22;8563;52.242;9.098;2024-02-04T06:02:20;9.80;99.90
16893;DHT22;8563;52.242;9.098;2024-02-04T06:04:52;9.80;99.90
16893;DHT22;8563;52.242;9.098;2024-02-04T06:07:24;9.80;99.90
16893;DHT22;8563;52.242;9.098;2024-02-04T06:09:56;9.90;99.90
16893;DHT22;8563;52.242;9.098;2024-02-04T06:12:30;9.80;99.90
16893;DHT22;8563;52.242;9.098;2024-02-04T06:15:05;9.80;99.90
16893;DHT22;8563;52.242;9.098;2024-02-04T06:17:37;9.70;99.90
16893;DHT22;8563;52.242;9.098;2024-02-04T06:20:10;9.70;99.90
16893;DHT22;8563;52.242;9.098;2024-02-04T06:22:42;9.70;99.90
16893;DHT22;8563;52.242;9.098;2024-02-04T06:25:15;9.60;99.90
16893;DHT22;8563;52.242;9.098;2024-02-04T06:27:47;9.60;99.90
16893;DHT22;8563;52.242;9.098;2024-02-04T06:30:20;9.50;99.90
16893;DHT22;8563;52.242;9.098;2024-02-04T06:32:53;9.50;99.90
16893;DHT22;8563;52.242;9.098;2024-02-04T06:35:27;9.50;99.90
16893;DHT22;8563;52.242;9.098;2024-02-04T06:37:59;9.50;99.90
16893;DHT22;8563;52.242;9.098;2024-02-04T06:40:32;9.40;99.90
16893;DHT22;8563;52.242;9.098;2024-02-04T06:43:04;9.40;99.90
16893;DHT22;8563;52.242;9.098;2024-02-04T06:45:38;9.40;99.90
16893;DHT22;8563;52.242;9.098;2024-02-04T06:48:10;9.40;99.90
16893;DHT22;8563;52.242;9.098;2024-02-04T06:50:43;9.40;99.90
16893;DHT22;8563;52.242;9.098;2024-02-04T06:53:16;9.40;99.90
16893;DHT22;8563;52.242;9.098;2024-02-04T06:55:48;9.40;99.90
16893;DHT22;8563;52.242;9.098;2024-02-04T06:58:21;9.40;99.90
16893;DHT22;8563;52.242;9.098;2024-02-04T07:00:54;9.40;99.90
16893;DHT22;8563;52.242;9.098;2024-02-04T07:03:27;9.40;99.90
16893;DHT22;8563;52.242;9.098;2024-02-04T07:06:00;9.40;99.90
16893;DHT22;8563;52.242;9.098;2024-02-04T07:08:32;9.40;99.90
16893;DHT22;8563;52.242;9.098;2024-02-04T07:11:04;9.40;99.90
16893;DHT22;8563;52.242;9.098;2024-02-04T07:13:37;9.40;99.90
16893;DHT22;8563;52.242;9.098;2024-02-04T07:16:11;9.40;99.90
16893;DHT22;8563;52.242;9.098;2024-02-04T07:18:43;9.50;99.90
16893;DHT22;8563;52.242;9.098;2024-02-04T07:21:15;9.50;99.90
16893;DHT22;8563;52.242;9.098;2024-02-04T07:23:48;9.40;99.90
16893;DHT22;8563;52.242;9.098;2024-02-04T07:26:20;9.40;99.90
16893;DHT22;8563;52.242;9.098;2024-02-04T07:28:52;9.50;99.90
16893;DHT22;8563;52.242;9.098;2024-02-04T07:31:26;9.50;99.90
16893;DHT22;8563;52.242;9.098;2024-02-04T07:33:58;9.50;99.90
16893;DHT22;8563;52.242;9.098;2024-02-04T07:36:30;9.50;99.90
16893;DHT22;8563;52.242;9.098;2024-02-04T07:39:03;9.40;99.90
16893;DHT22;8563;52.242;9.098;2024-02-04T07:41:35;9.40;99.90
16893;DHT22;8563;52.242;9.098;2024-02-04T07:44:08;9.50;99.90
16893;DHT22;8563;52.242;9.098;2024-02-04T07:46:41;9.50;99.90
16893;DHT22;8563;52.242;9.098;2024-02-04T07:49:14;9.50;99.90
16893;DHT22;8563;52.242;9.098;2024-02-04T07:51:46;9.40;99.90
16893;DHT22;8563;52.242;9.098;2024-02-04T07:54:18;9.40;99.90
16893;DHT22;8563;52.242;9.098;2024-02-04T07:56:51;9.50;99.90
16893;DHT22;8563;52.242;9.098;2024-02-04T07:59:23;9.50;99.90
16893;DHT22;8563;52.242;9.098;2024-02-04T08:01:56;9.50;99.90
16893;DHT22;8563;52.242;9.098;2024-02-04T08:04:29;9.50;99.90
16893;DHT22;8563;52.242;9.098;2024-02-04T08:07:01;9.50;99.90
16893;DHT22;8563;52.242;9.098;2024-02-04T08:09:34;9.50;99.90
16893;DHT22;8563;52.242;9.098;2024-02-04T08:12:06;9.50;99.90
16893;DHT22;8563;52.242;9.098;2024-02-04T08:14:39;9.40;99.90
16893;DHT22;8563;52.242;9.098;2024-02-04T08:17:12;9.50;99.90
16893;DHT22;8563;52.242;9.098;2024-02-04T08:19:45;9.50;99.90
16893;DHT22;8563;52.242;9.098;2024-02-04T08:22:17;9.40;99.90
16893;DHT22;8563;52.242;9.098;2024-02-04T08:24:50;9.50;99.90
16893;DHT22;8563;52.242;9.098;2024-02-04T08:27:22;9.50;99.90
16893;DHT22;8563;52.242;9.098;2024-02-04T08:29:55;9.50;99.90
16893;DHT22;8563;52.242;9.098;2024-02-04T08:32:28;9.50;99.90
16893;DHT22;8563;52.242;9.098;2024-02-04T08:35:00;9.50;99.90
16893;DHT22;8563;52.242;9.098;2024-02-04T08:37:32;9.50;99.90
16893;DHT22;8563;52.242;9.098;2024-02-04T08:40:07;9.50;99.90
16893;DHT22;8563;52.242;9.098;2024-02-04T08:42:41;9.50;99.90
16893;DHT22;8563;52.242;9.098;2024-02-04T08:45:13;9.50;99.90
16893;DHT22;8563;52.242;9.098;2024-02-04T08:47:47;9.60;99.90
16893;DHT22;8563;52.242;9.098;2024-02-04T08:50:20;9.60;99.90
16893;DHT22;8563;52.242;9.098;2024-02-04T08:52:52;9.60;99.90
16893;DHT22;8563;52.242;9.098;2024-02-04T08:55:24;9.70;99.90
16893;DHT22;8563;52.242;9.098;2024-02-04T08:57:56;9.70;99.90
16893;DHT22;8563;52.242;9.098;2024-02-04T09:00:29;9.80;99.90
16893;DHT22;8563;52.242;9.098;2024-02-04T09:03:03;9.80;99.90
16893;DHT22;8563;52.242;9.098;2024-02-04T09:05:35;9.70;99.90
16893;DHT22;8563;52.242;9.098;2024-02-04T09:08:07;9.70;99.90
16893;DHT22;8563;52.242;9.098;2024-02-04T09:10:41;9.70;99.90
16893;DHT22;8563;52.242;9.098;2024-02-04T09:13:14;9.70;99.90
16893;DHT22;8563;52.242;9.098;2024-02-04T09:15:46;9.60;99.90
16893;DHT22;8563;52.242;9.098;2024-02-04T09:18:19;9.70;99.90
16893;DHT22;8563;52.242;9.098;2024-02-04T09:20:52;9.80;99.90
16893;DHT22;8563;52.242;9.098;2024-02-04T09:23:24;9.90;99.90
16893;DHT22;8563;52.242;9.098;2024-02-04T09:25:56;9.90;99.90
16893;DHT22;8563;52.242;9.098;2024-02-04T09:28:28;9.90;99.90
16893;DHT22;8563;52.242;9.098;2024-02-04T09:31:00;10.00;99.90
16893;DHT22;8563;52.242;9.098;2024-02-04T09:33:35;10.10;99.90
16893;DHT22;8563;52.242;9.098;2024-02-04T09:36:08;10.10;99.90
16893;DHT22;8563;52.242;9.098;2024-02-04T09:38:40;10.10;99.90
16893;DHT22;8563;52.242;9.098;2024-02-04T09:41:13;10.10;99.90
16893;DHT22;8563;52.242;9.098;2024-02-04T09:43:45;10.10;99.90
16893;DHT22;8563;52.242;9.098;2024-02-04T09:46:18;10.00;99.90
16893;DHT22;8563;52.242;9.098;2024-02-04T09:48:53;10.00;99.90
16893;DHT22;8563;52.242;9.098;2024-02-04T09:51:28;10.10;99.90
16893;DHT22;8563;52.242;9.098;2024-02-04T09:54:05;10.10;99.90
16893;DHT22;8563;52.242;9.098;2024-02-04T09:56:40;10.10;99.90
16893;DHT22;8563;52.242;9.098;2024-02-04T09:59:13;10.10;99.90
16893;DHT22;8563;52.242;9.098;2024-02-04T10:01:46;10.20;99.90
16893;DHT22;8563;52.242;9.098;2024-02-04T10:04:20;10.30;99.90
16893;DHT22;8563;52.242;9.098;2024-02-04T10:06:52;10.30;99.90
16893;DHT22;8563;52.242;9.098;2024-02-04T10:09:24;10.30;99.90
16893;DHT22;8563;52.242;9.098;2024-02-04T10:11:57;10.30;99.90
16893;DHT22;8563;52.242;9.098;2024-02-04T10:14:30;10.50;99.90
16893;DHT22;8563;52.242;9.098;2024-02-04T10:17:03;10.50;99.90
16893;DHT22;8563;52.242;9.098;2024-02-04T10:19:37;10.40;99.90
16893;DHT22;8563;52.242;9.098;2024-02-04T10:22:09;10.40;99.90
16893;DHT22;8563;52.242;9.098;2024-02-04T10:24:42;10.40;99.90
16893;DHT22;8563;52.242;9.098;2024-02-04T10:27:15;10.40;99.90
16893;DHT22;8563;52.242;9.098;2024-02-04T10:29:47;10.50;99.90
16893;DHT22;8563;52.242;9.098;2024-02-04T10:32:22;10.50;99.90
16893;DHT22;8563;52.242;9.098;2024-02-04T10:34:57;10.60;99.90
16893;DHT22;8563;52.242;9.098;2024-02-04T10:37:30;10.60;99.90
16893;DHT22;8563;52.242;9.098;2024-02-04T10:40:02;10.70;99.90
16893;DHT22;8563;52.242;9.098;2024-02-04T10:42:35;10.70;99.90
16893;DHT22;8563;52.242;9.098;2024-02-04T10:45:09;10.80;99.90
16893;DHT22;8563;52.242;9.098;2024-02-04T10:47:44;10.80;99.90
16893;DHT22;8563;52.242;9.098;2024-02-04T10:50:24;10.90;99.90
16893;DHT22;8563;52.242;9.098;2024-02-04T10:52:58;11.00;99.90
16893;DHT22;8563;52.242;9.098;2024-02-04T10:55:41;11.00;99.90
16893;DHT22;8563;52.242;9.098;2024-02-04T10:58:14;10.90;99.90
16893;DHT22;8563;52.242;9.098;2024-02-04T11:00:47;10.80;99.90
16893;DHT22;8563;52.242;9.098;2024-02-04T11:03:21;10.70;99.90
16893;DHT22;8563;52.242;9.098;2024-02-04T11:05:59;10.70;99.90
16893;DHT22;8563;52.242;9.098;2024-02-04T11:08:32;10.90;99.90
16893;DHT22;8563;52.242;9.098;2024-02-04T11:11:05;10.80;99.90
16893;DHT22;8563;52.242;9.098;2024-02-04T11:13:38;10.70;99.90
16893;DHT22;8563;52.242;9.098;2024-02-04T11:16:19;10.60;99.90
16893;DHT22;8563;52.242;9.098;2024-02-04T11:19:08;10.60;99.90
16893;DHT22;8563;52.242;9.098;2024-02-04T11:22:08;10.50;99.90
16893;DHT22;8563;52.242;9.098;2024-02-04T11:25:12;10.40;99.90
16893;DHT22;8563;52.242;9.098;2024-02-04T11:27:46;10.40;99.90
16893;DHT22;8563;52.242;9.098;2024-02-04T11:30:19;10.30;99.90
16893;DHT22;8563;52.242;9.098;2024-02-04T11:32:52;10.30;99.90
16893;DHT22;8563;52.242;9.098;2024-02-04T11:35:24;10.30;99.90
16893;DHT22;8563;52.242;9.098;2024-02-04T11:37:59;10.40;99.90
16893;DHT22;8563;52.242;9.098;2024-02-04T11:40:34;10.40;99.90
16893;DHT22;8563;52.242;9.098;2024-02-04T11:43:10;10.30;99.90
16893;DHT22;8563;52.242;9.098;2024-02-04T11:45:43;10.20;99.90
16893;DHT22;8563;52.242;9.098;2024-02-04T11:48:17;10.10;99.90
16893;DHT22;8563;52.242;9.098;2024-02-04T11:50:52;10.10;99.90
16893;DHT22;8563;52.242;9.098;2024-02-04T11:53:26;10.10;99.90
16893;DHT22;8563;52.242;9.098;2024-02-04T11:56:03;10.20;99.90
16893;DHT22;8563;52.242;9.098;2024-02-04T11:58:35;10.40;99.90
16893;DHT22;8563;52.242;9.098;2024-02-04T12:01:10;10.30;99.90
16893;DHT22;8563;52.242;9.098;2024-02-04T12:03:42;10.30;99.90
16893;DHT22;8563;52.242;9.098;2024-02-04T12:06:16;10.40;99.90
16893;DHT22;8563;52.242;9.098;2024-02-04T12:08:49;10.30;99.90
16893;DHT22;8563;52.242;9.098;2024-02-04T12:11:22;10.20;99.90
16893;DHT22;8563;52.242;9.098;2024-02-04T12:13:56;10.20;99.90
16893;DHT22;8563;52.242;9.098;2024-02-04T12:16:28;10.20;99.90
16893;DHT22;8563;52.242;9.098;2024-02-04T12:19:02;10.20;99.90
16893;DHT22;8563;52.242;9.098;2024-02-04T12:21:35;10.20;99.90
16893;DHT22;8563;52.242;9.098;2024-02-04T12:24:09;10.20;99.90
16893;DHT22;8563;52.242;9.098;2024-02-04T12:26:42;10.20;99.90
16893;DHT22;8563;52.242;9.098;2024-02-04T12:29:17;10.20;99.90
16893;DHT22;8563;52.242;9.098;2024-02-04T12:31:58;10.10;99.90
16893;DHT22;8563;52.242;9.098;2024-02-04T12:34:30;10.00;99.90
16893;DHT22;8563;52.242;9.098;2024-02-04T12:37:05;10.10;99.90
16893;DHT22;8563;52.242;9.098;2024-02-04T12:39:38;10.00;99.90
16893;DHT22;8563;52.242;9.098;2024-02-04T12:42:10;10.10;99.90
16893;DHT22;8563;52.242;9.098;2024-02-04T12:44:49;10.10;99.90
16893;DHT22;8563;52.242;9.098;2024-02-04T12:47:23;10.10;99.90
16893;DHT22;8563;52.242;9.098;2024-02-04T12:50:00;10.00;99.90
16893;DHT22;8563;52.242;9.098;2024-02-04T12:52:33;10.00;99.90
16893;DHT22;8563;52.242;9.098;2024-02-04T12:55:19;10.00;99.90
16893;DHT22;8563;52.242;9.098;2024-02-04T12:58:01;10.00;99.90
16893;DHT22;8563;52.242;9.098;2024-02-04T13:00:35;10.10;99.90
16893;DHT22;8563;52.242;9.098;2024-02-04T13:03:08;10.10;99.90
16893;DHT22;8563;52.242;9.098;2024-02-04T13:05:41;10.20;99.90
16893;DHT22;8563;52.242;9.098;2024-02-04T13:08:13;10.30;99.90
16893;DHT22;8563;52.242;9.098;2024-02-04T13:10:55;10.40;99.90
16893;DHT22;8563;52.242;9.098;2024-02-04T13:13:27;10.50;99.90
16893;DHT22;8563;52.242;9.098;2024-02-04T13:16:00;10.40;99.90
16893;DHT22;8563;52.242;9.098;2024-02-04T13:18:32;10.40;99.90
16893;DHT22;8563;52.242;9.098;2024-02-04T13:21:05;10.40;99.90
16893;DHT22;8563;52.242;9.098;2024-02-04T13:23:37;10.40;99.90
16893;DHT22;8563;52.242;9.098;2024-02-04T13:26:10;10.30;99.90
16893;DHT22;8563;52.242;9.098;2024-02-04T13:28:43;10.30;99.90
16893;DHT22;8563;52.242;9.098;2024-02-04T13:31:16;10.30;99.90
16893;DHT22;8563;52.242;9.098;2024-02-04T13:33:48;10.20;99.90
16893;DHT22;8563;52.242;9.098;2024-02-04T13:36:20;10.20;99.90
16893;DHT22;8563;52.242;9.098;2024-02-04T13:38:52;10.20;99.90
16893;DHT22;8563;52.242;9.098;2024-02-04T13:41:26;10.20;99.90
16893;DHT22;8563;52.242;9.098;2024-02-04T13:43:59;10.20;99.90
16893;DHT22;8563;52.242;9.098;2024-02-04T13:46:31;10.30;99.90
16893;DHT22;8563;52.242;9.098;2024-02-04T13:49:03;10.30;99.90
16893;DHT22;8563;52.242;9.098;2024-02-04T13:51:36;10.40;99.90
16893;DHT22;8563;52.242;9.098;2024-02-04T13:54:09;10.40;99.90
16893;DHT22;8563;52.242;9.098;2024-02-04T13:56:43;10.30;99.90
16893;DHT22;8563;52.242;9.098;2024-02-04T13:59:16;10.30;99.90
16893;DHT22;8563;52.242;9.098;2024-02-04T14:01:48;10.30;99.90
16893;DHT22;8563;52.242;9.098;2024-02-04T14:04:21;10.30;99.90
16893;DHT22;8563;52.242;9.098;2024-02-04T14:06:53;10.30;99.90
16893;DHT22;8563;52.242;9.098;2024-02-04T14:09:26;10.40;99.90
16893;DHT22;8563;52.242;9.098;2024-02-04T14:12:01;10.30;99.90
16893;DHT22;8563;52.242;9.098;2024-02-04T14:14:34;10.30;99.90
16893;DHT22;8563;52.242;9.098;2024-02-04T14:17:06;10.40;99.90
16893;DHT22;8563;52.242;9.098;2024-02-04T14:19:39;10.40;99.90
16893;DHT22;8563;52.242;9.098;2024-02-04T14:29:19;10.30;99.90
16893;DHT22;8563;52.242;9.098;2024-02-04T14:31:52;10.40;99.90
16893;DHT22;8563;52.242;9.098;2024-02-04T14:34:24;10.40;99.90
16893;DHT22;8563;52.242;9.098;2024-02-04T14:36:57;10.40;99.90
16893;DHT22;8563;52.242;9.098;2024-02-04T14:39:30;10.50;99.90
16893;DHT22;8563;52.242;9.098;2024-02-04T14:42:03;10.50;99.90
16893;DHT22;8563;52.242;9.098;2024-02-04T14:44:39;10.50;99.90
16893;DHT22;8563;52.242;9.098;2024-02-04T14:47:11;10.50;99.90
16893;DHT22;8563;52.242;9.098;2024-02-04T14:49:44;10.40;99.90
16893;DHT22;8563;52.242;9.098;2024-02-04T14:52:16;10.40;99.90
16893;DHT22;8563;52.242;9.098;2024-02-04T14:54:48;10.40;99.90
16893;DHT22;8563;52.242;9.098;2024-02-04T14:57:21;10.30;99.90
16893;DHT22;8563;52.242;9.098;2024-02-04T14:59:54;10.30;99.90
16893;DHT22;8563;52.242;9.098;2024-02-04T15:02:27;10.20;99.90
16893;DHT22;8563;52.242;9.098;2024-02-04T15:04:59;10.20;99.90
16893;DHT22;8563;52.242;9.098;2024-02-04T15:07:31;10.10;99.90
16893;DHT22;8563;52.242;9.098;2024-02-04T15:10:05;10.10;99.90
16893;DHT22;8563;52.242;9.098;2024-02-04T15:12:41;9.90;99.90
16893;DHT22;8563;52.242;9.098;2024-02-04T15:15:17;9.80;99.90
16893;DHT22;8563;52.242;9.098;2024-02-04T15:17:49;9.70;99.90
16893;DHT22;8563;52.242;9.098;2024-02-04T15:20:22;9.70;99.90
16893;DHT22;8563;52.242;9.098;2024-02-04T15:22:57;9.70;99.90
16893;DHT22;8563;52.242;9.098;2024-02-04T15:25:32;9.60;99.90
16893;DHT22;8563;52.242;9.098;2024-02-04T15:28:06;9.70;99.90
16893;DHT22;8563;52.242;9.098;2024-02-04T15:30:44;9.60;99.90
16893;DHT22;8563;52.242;9.098;2024-02-04T15:33:17;9.60;99.90
16893;DHT22;8563;52.242;9.098;2024-02-04T15:35:49;9.50;99.90
16893;DHT22;8563;52.242;9.098;2024-02-04T15:38:21;9.50;99.90
16893;DHT22;8563;52.242;9.098;2024-02-04T15:40:54;9.50;99.90
16893;DHT22;8563;52.242;9.098;2024-02-04T15:43:26;9.40;99.90
16893;DHT22;8563;52.242;9.098;2024-02-04T15:46:00;9.40;99.90
16893;DHT22;8563;52.242;9.098;2024-02-04T15:48:41;9.30;99.90
16893;DHT22;8563;52.242;9.098;2024-02-04T15:51:16;9.40;99.90
16893;DHT22;8563;52.242;9.098;2024-02-04T15:53:49;9.40;99.90
16893;DHT22;8563;52.242;9.098;2024-02-04T15:56:24;9.40;99.90
16893;DHT22;8563;52.242;9.098;2024-02-04T15:59:05;9.30;99.90
16893;DHT22;8563;52.242;9.098;2024-02-04T16:01:41;9.20;99.90
16893;DHT22;8563;52.242;9.098;2024-02-04T16:04:13;9.30;99.90
16893;DHT22;8563;52.242;9.098;2024-02-04T16:06:49;9.30;99.90
16893;DHT22;8563;52.242;9.098;2024-02-04T16:09:22;9.30;99.90
16893;DHT22;8563;52.242;9.098;2024-02-04T16:12:01;9.30;99.90
16893;DHT22;8563;52.242;9.098;2024-02-04T16:14:37;9.30;99.90
16893;DHT22;8563;52.242;9.098;2024-02-04T16:17:15;9.20;99.90
16893;DHT22;8563;52.242;9.098;2024-02-04T16:19:49;9.20;99.90
16893;DHT22;8563;52.242;9.098;2024-02-04T16:22:23;9.20;99.90
16893;DHT22;8563;52.242;9.098;2024-02-04T16:24:55;9.20;99.90
16893;DHT22;8563;52.242;9.098;2024-02-04T16:27:28;9.30;99.90
16893;DHT22;8563;52.242;9.098;2024-02-04T16:30:00;9.20;99.90
16893;DHT22;8563;52.242;9.098;2024-02-04T16:32:34;9.20;99.90
16893;DHT22;8563;52.242;9.098;2024-02-04T16:35:07;9.20;99.90
16893;DHT22;8563;52.242;9.098;2024-02-04T16:37:39;9.10;99.90
16893;DHT22;8563;52.242;9.098;2024-02-04T16:40:12;9.10;99.90
16893;DHT22;8563;52.242;9.098;2024-02-04T16:42:44;9.20;99.90
16893;DHT22;8563;52.242;9.098;2024-02-04T16:45:19;9.20;99.90